Private Wetterstation Sandau
Wetterdaten: Mittwoch, 06.03.2013
Datum Zeit Temp. A. Feuchte A. Luftdruck Regen Wind Richtung Richtung Taupunkt Windchill
06.03.2013 00:01 1,4 C 80 % 1009,2 hPa 0,0 l/m 3,6 km/h (1 Bft) O-SO 112 -1,7 C 1,4 C
06.03.2013 00:06 1,3 C 80 % 1009,2 hPa 0,0 l/m 0,0 km/h (0 Bft) O-SO 112 -1,8 C 1,3 C
06.03.2013 00:11 1,3 C 80 % 1009,1 hPa 0,0 l/m 5,0 km/h (1 Bft) O-SO 112 -1,8 C -0,1 C
06.03.2013 00:16 1,2 C 80 % 1009,3 hPa 0,0 l/m 0,0 km/h (0 Bft) SO 135 -1,9 C 1,2 C
06.03.2013 00:21 1,1 C 81 % 1009,3 hPa 0,0 l/m 2,2 km/h (1 Bft) SO 135 -1,8 C 1,1 C
06.03.2013 00:26 1,1 C 81 % 1009,1 hPa 0,0 l/m 2,9 km/h (1 Bft) SO 135 -1,8 C 1,1 C
06.03.2013 00:31 0,9 C 81 % 1009,2 hPa 0,0 l/m 3,6 km/h (1 Bft) O-SO 112 -2,0 C 0,9 C
06.03.2013 00:36 0,9 C 81 % 1009,1 hPa 0,0 l/m 2,5 km/h (1 Bft) SO 135 -2,0 C 0,9 C
06.03.2013 00:41 0,8 C 82 % 1009,0 hPa 0,0 l/m 1,8 km/h (1 Bft) SO 135 -1,9 C 0,8 C
06.03.2013 00:46 0,8 C 82 % 1009,1 hPa 0,0 l/m 2,9 km/h (1 Bft) O-SO 112 -1,9 C 0,8 C
06.03.2013 00:51 0,8 C 82 % 1008,9 hPa 0,0 l/m 4,0 km/h (1 Bft) O-SO 112 -1,9 C 0,8 C
06.03.2013 00:56 0,8 C 83 % 1008,8 hPa 0,0 l/m 3,6 km/h (1 Bft) SO 135 -1,8 C 0,8 C
06.03.2013 01:01 0,7 C 83 % 1008,9 hPa 0,0 l/m 1,4 km/h (1 Bft) SO 135 -1,8 C 0,7 C
06.03.2013 01:06 0,7 C 83 % 1008,8 hPa 0,0 l/m 4,0 km/h (1 Bft) SO 135 -1,8 C 0,7 C
06.03.2013 01:11 0,6 C 83 % 1008,8 hPa 0,0 l/m 2,9 km/h (1 Bft) O-SO 112 -1,9 C 0,6 C
06.03.2013 01:16 0,6 C 84 % 1008,9 hPa 0,0 l/m 5,0 km/h (1 Bft) O 90 -1,8 C -0,9 C
06.03.2013 01:21 0,5 C 84 % 1008,9 hPa 0,0 l/m 6,5 km/h (2 Bft) O 90 -1,9 C -1,6 C
06.03.2013 01:26 0,5 C 84 % 1008,7 hPa 0,0 l/m 2,5 km/h (1 Bft) O-SO 112 -1,9 C 0,5 C
06.03.2013 01:31 0,4 C 84 % 1008,7 hPa 0,0 l/m 2,5 km/h (1 Bft) O-SO 112 -2,0 C 0,4 C
06.03.2013 01:36 0,4 C 84 % 1008,7 hPa 0,0 l/m 4,0 km/h (1 Bft) O-SO 112 -2,0 C 0,4 C
06.03.2013 01:41 0,3 C 84 % 1008,7 hPa 0,0 l/m 0,0 km/h (0 Bft) O 90 -2,1 C 0,3 C
06.03.2013 01:46 0,2 C 84 % 1008,7 hPa 0,0 l/m 0,0 km/h (0 Bft) SO 135 -2,2 C 0,2 C
06.03.2013 01:51 0,1 C 84 % 1008,7 hPa 0,0 l/m 2,5 km/h (1 Bft) O-SO 112 -2,3 C 0,1 C
06.03.2013 01:56 0,1 C 84 % 1008,7 hPa 0,0 l/m 5,8 km/h (2 Bft) O-SO 112 -2,3 C -1,8 C
06.03.2013 02:01 0,1 C 84 % 1008,7 hPa 0,0 l/m 2,5 km/h (1 Bft) O-SO 112 -2,3 C 0,1 C
06.03.2013 02:06 0,1 C 84 % 1008,4 hPa 0,0 l/m 2,2 km/h (1 Bft) O-SO 112 -2,3 C 0,1 C
06.03.2013 02:11 0,1 C 85 % 1008,4 hPa 0,0 l/m 3,2 km/h (1 Bft) O-SO 112 -2,1 C 0,1 C
06.03.2013 02:16 0,1 C 85 % 1008,5 hPa 0,0 l/m 4,0 km/h (1 Bft) O-SO 112 -2,1 C 0,1 C
06.03.2013 02:21 -0,1 C 85 % 1008,5 hPa 0,0 l/m 3,2 km/h (1 Bft) SO 135 -2,3 C -0,1 C
06.03.2013 02:26 -0,1 C 86 % 1008,5 hPa 0,0 l/m 2,2 km/h (1 Bft) O-SO 112 -2,2 C -0,1 C
06.03.2013 02:31 -0,2 C 86 % 1008,4 hPa 0,0 l/m 3,2 km/h (1 Bft) S-SO 157 -2,3 C -0,2 C
06.03.2013 02:36 -0,2 C 86 % 1008,5 hPa 0,0 l/m 7,2 km/h (2 Bft) S-SO 157 -2,3 C -2,7 C
06.03.2013 02:41 -0,2 C 86 % 1008,5 hPa 0,0 l/m 2,5 km/h (1 Bft) S-SO 157 -2,3 C -0,2 C
06.03.2013 02:46 -0,2 C 86 % 1008,3 hPa 0,0 l/m 5,4 km/h (1 Bft) O-SO 112 -2,3 C -2,0 C
06.03.2013 02:51 -0,2 C 86 % 1008,2 hPa 0,0 l/m 0,0 km/h (0 Bft) S-SO 157 -2,3 C -0,2 C
06.03.2013 02:56 -0,4 C 86 % 1008,2 hPa 0,0 l/m 2,2 km/h (1 Bft) O-SO 112 -2,4 C -0,4 C
06.03.2013 03:01 -0,4 C 86 % 1008,2 hPa 0,0 l/m 2,5 km/h (1 Bft) O-SO 112 -2,4 C -0,4 C
06.03.2013 03:06 -0,6 C 87 % 1008,3 hPa 0,0 l/m 4,0 km/h (1 Bft) O-SO 112 -2,5 C -0,6 C
06.03.2013 03:11 -0,7 C 87 % 1008,1 hPa 0,0 l/m 0,0 km/h (0 Bft) O-SO 112 -2,6 C -0,7 C
06.03.2013 03:16 -0,8 C 87 % 1008,1 hPa 0,0 l/m 1,4 km/h (1 Bft) O-SO 112 -2,7 C -0,8 C
06.03.2013 03:21 -0,8 C 87 % 1008,1 hPa 0,0 l/m 0,0 km/h (0 Bft) O 90 -2,7 C -0,8 C
06.03.2013 03:26 -0,9 C 87 % 1008,1 hPa 0,0 l/m 4,0 km/h (1 Bft) O-NO 67 -2,8 C -0,9 C
06.03.2013 03:31 -0,9 C 87 % 1008,2 hPa 0,0 l/m 2,5 km/h (1 Bft) S-SO 157 -2,8 C -0,9 C
06.03.2013 03:36 -0,9 C 87 % 1008,2 hPa 0,0 l/m 3,2 km/h (1 Bft) SO 135 -2,8 C -0,9 C
06.03.2013 03:41 -0,9 C 87 % 1008,1 hPa 0,0 l/m 4,0 km/h (1 Bft) O-SO 112 -2,8 C -0,9 C
06.03.2013 03:46 -0,9 C 87 % 1008,1 hPa 0,0 l/m 4,0 km/h (1 Bft) O-SO 112 -2,8 C -0,9 C
06.03.2013 03:51 -0,9 C 88 % 1008,1 hPa 0,0 l/m 2,2 km/h (1 Bft) O 90 -2,6 C -0,9 C
06.03.2013 03:56 -0,9 C 88 % 1008,1 hPa 0,0 l/m 3,2 km/h (1 Bft) O 90 -2,6 C -0,9 C
06.03.2013 04:01 -0,9 C 88 % 1008,1 hPa 0,0 l/m 3,2 km/h (1 Bft) O-SO 112 -2,6 C -0,9 C
06.03.2013 04:06 -0,9 C 88 % 1008,1 hPa 0,0 l/m 6,5 km/h (2 Bft) O 90 -2,6 C -3,3 C
06.03.2013 04:11 -0,8 C 88 % 1008,0 hPa 0,0 l/m 5,4 km/h (1 Bft) O-SO 112 -2,5 C -2,7 C
06.03.2013 04:16 -0,8 C 88 % 1008,0 hPa 0,0 l/m 6,1 km/h (2 Bft) O-SO 112 -2,5 C -3,0 C
06.03.2013 04:21 -0,9 C 88 % 1008,0 hPa 0,0 l/m 5,4 km/h (1 Bft) O 90 -2,6 C -2,8 C
06.03.2013 04:26 -0,8 C 88 % 1008,0 hPa 0,0 l/m 5,4 km/h (1 Bft) O 90 -2,5 C -2,7 C
06.03.2013 04:31 -0,8 C 88 % 1008,0 hPa 0,0 l/m 3,2 km/h (1 Bft) O 90 -2,5 C -0,8 C
06.03.2013 04:36 -0,8 C 88 % 1007,9 hPa 0,0 l/m 3,2 km/h (1 Bft) O 90 -2,5 C -0,8 C
06.03.2013 04:41 -0,8 C 88 % 1007,7 hPa 0,0 l/m 3,6 km/h (1 Bft) O-SO 112 -2,5 C -0,8 C
06.03.2013 04:46 -0,9 C 88 % 1007,7 hPa 0,0 l/m 3,6 km/h (1 Bft) O-SO 112 -2,6 C -0,9 C
06.03.2013 04:51 -0,9 C 88 % 1007,8 hPa 0,0 l/m 0,0 km/h (0 Bft) O-SO 112 -2,6 C -0,9 C
06.03.2013 04:56 -1,0 C 88 % 1007,9 hPa 0,0 l/m 3,2 km/h (1 Bft) O-SO 112 -2,7 C -1,0 C
06.03.2013 05:01 -1,0 C 88 % 1007,8 hPa 0,0 l/m 0,0 km/h (0 Bft) O-SO 112 -2,7 C -1,0 C
06.03.2013 05:06 -1,1 C 88 % 1008,0 hPa 0,0 l/m 2,9 km/h (1 Bft) S-SO 157 -2,8 C -1,1 C
06.03.2013 05:11 -1,1 C 88 % 1007,8 hPa 0,0 l/m 3,2 km/h (1 Bft) O-SO 112 -2,8 C -1,1 C
06.03.2013 05:16 -1,2 C 88 % 1007,9 hPa 0,0 l/m 2,9 km/h (1 Bft) O-SO 112 -2,9 C -1,2 C
06.03.2013 05:21 -1,2 C 88 % 1007,8 hPa 0,0 l/m 3,2 km/h (1 Bft) O-SO 112 -2,9 C -1,2 C
06.03.2013 05:26 -1,3 C 88 % 1007,6 hPa 0,0 l/m 5,4 km/h (1 Bft) SO 135 -3,0 C -3,3 C
06.03.2013 05:31 -1,3 C 88 % 1007,6 hPa 0,0 l/m 2,9 km/h (1 Bft) O-SO 112 -3,0 C -1,3 C
06.03.2013 05:36 -1,3 C 88 % 1007,6 hPa 0,0 l/m 5,4 km/h (1 Bft) O-SO 112 -3,0 C -3,3 C
06.03.2013 05:41 -1,3 C 88 % 1007,5 hPa 0,0 l/m 3,2 km/h (1 Bft) O-SO 112 -3,0 C -1,3 C
06.03.2013 05:46 -1,3 C 89 % 1007,6 hPa 0,0 l/m 5,4 km/h (1 Bft) O-SO 112 -2,9 C -3,3 C
06.03.2013 05:51 -1,4 C 89 % 1007,5 hPa 0,0 l/m 3,6 km/h (1 Bft) O-SO 112 -3,0 C -1,4 C
06.03.2013 05:56 -1,4 C 89 % 1007,6 hPa 0,0 l/m 2,2 km/h (1 Bft) SO 135 -3,0 C -1,4 C
06.03.2013 06:01 -1,4 C 89 % 1007,5 hPa 0,0 l/m 2,2 km/h (1 Bft) O-SO 112 -3,0 C -1,4 C
06.03.2013 06:06 -1,5 C 89 % 1007,4 hPa 0,0 l/m 0,0 km/h (0 Bft) O-SO 112 -3,1 C -1,5 C
06.03.2013 06:11 -1,5 C 89 % 1007,2 hPa 0,0 l/m 2,5 km/h (1 Bft) O-SO 112 -3,1 C -1,5 C
06.03.2013 06:16 -1,5 C 89 % 1007,4 hPa 0,0 l/m 4,7 km/h (1 Bft) O-SO 112 -3,1 C -3,1 C
06.03.2013 06:21 -1,5 C 89 % 1007,5 hPa 0,0 l/m 4,7 km/h (1 Bft) O 90 -3,1 C -3,1 C
06.03.2013 06:26 -1,5 C 89 % 1007,4 hPa 0,0 l/m 1,8 km/h (1 Bft) O-NO 67 -3,1 C -1,5 C
06.03.2013 06:31 -1,5 C 89 % 1007,4 hPa 0,0 l/m 3,6 km/h (1 Bft) O-SO 112 -3,1 C -1,5 C
06.03.2013 06:36 -1,6 C 89 % 1007,5 hPa 0,0 l/m 3,2 km/h (1 Bft) SO 135 -3,2 C -1,6 C
06.03.2013 06:41 -1,6 C 89 % 1007,4 hPa 0,0 l/m 6,1 km/h (2 Bft) SO 135 -3,2 C -3,9 C
06.03.2013 06:46 -1,6 C 89 % 1007,4 hPa 0,0 l/m 3,6 km/h (1 Bft) O-SO 112 -3,2 C -1,6 C
06.03.2013 06:51 -1,5 C 89 % 1007,3 hPa 0,0 l/m 2,9 km/h (1 Bft) O-SO 112 -3,1 C -1,5 C
06.03.2013 06:56 -1,5 C 89 % 1007,3 hPa 0,0 l/m 2,9 km/h (1 Bft) O 90 -3,1 C -1,5 C
06.03.2013 07:01 -1,5 C 89 % 1007,2 hPa 0,0 l/m 4,0 km/h (1 Bft) S-SO 157 -3,1 C -1,5 C
06.03.2013 07:06 -1,4 C 89 % 1007,3 hPa 0,0 l/m 3,2 km/h (1 Bft) O-NO 67 -3,0 C -1,4 C
06.03.2013 07:11 -1,3 C 89 % 1007,3 hPa 0,0 l/m 3,2 km/h (1 Bft) SO 135 -2,9 C -1,3 C
06.03.2013 07:16 -1,3 C 89 % 1007,3 hPa 0,0 l/m 2,9 km/h (1 Bft) O 90 -2,9 C -1,3 C
06.03.2013 07:21 -1,2 C 90 % 1007,2 hPa 0,0 l/m 3,2 km/h (1 Bft) O-NO 67 -2,6 C -1,2 C
06.03.2013 07:26 -1,1 C 90 % 1007,4 hPa 0,0 l/m 0,0 km/h (0 Bft) NO 45 -2,5 C -1,1 C
06.03.2013 07:31 -1,1 C 90 % 1007,7 hPa 0,0 l/m 0,0 km/h (0 Bft) NO 45 -2,5 C -1,1 C
06.03.2013 07:36 -1,0 C 90 % 1007,6 hPa 0,0 l/m 0,0 km/h (0 Bft) NO 45 -2,4 C -1,0 C
06.03.2013 07:41 -0,9 C 90 % 1007,5 hPa 0,0 l/m 1,1 km/h (1 Bft) NO 45 -2,3 C -0,9 C
06.03.2013 07:46 -0,9 C 89 % 1007,7 hPa 0,0 l/m 2,2 km/h (1 Bft) O-SO 112 -2,5 C -0,9 C
06.03.2013 07:51 -0,8 C 89 % 1007,5 hPa 0,0 l/m 3,2 km/h (1 Bft) O-NO 67 -2,4 C -0,8 C
06.03.2013 07:56 -0,7 C 89 % 1007,8 hPa 0,0 l/m 0,0 km/h (0 Bft) O 90 -2,3 C -0,7 C
06.03.2013 08:01 -0,7 C 89 % 1007,7 hPa 0,0 l/m 2,2 km/h (1 Bft) O-NO 67 -2,3 C -0,7 C
06.03.2013 08:06 -0,6 C 89 % 1007,6 hPa 0,0 l/m 2,5 km/h (1 Bft) O-SO 112 -2,2 C -0,6 C
06.03.2013 08:11 -0,5 C 89 % 1007,6 hPa 0,0 l/m 0,0 km/h (0 Bft) O 90 -2,1 C -0,5 C
06.03.2013 08:16 -0,4 C 89 % 1007,6 hPa 0,0 l/m 4,0 km/h (1 Bft) O 90 -2,0 C -0,4 C
06.03.2013 08:21 -0,3 C 89 % 1007,5 hPa 0,0 l/m 2,2 km/h (1 Bft) O 90 -1,9 C -0,3 C
06.03.2013 08:26 -0,1 C 89 % 1007,6 hPa 0,0 l/m 3,6 km/h (1 Bft) SO 135 -1,7 C -0,1 C
06.03.2013 08:31 -0,1 C 88 % 1007,6 hPa 0,0 l/m 1,8 km/h (1 Bft) O-NO 67 -1,8 C -0,1 C
06.03.2013 08:36 0,1 C 89 % 1007,4 hPa 0,0 l/m 2,2 km/h (1 Bft) O-NO 67 -1,5 C 0,1 C
06.03.2013 08:41 0,1 C 89 % 1007,6 hPa 0,0 l/m 2,2 km/h (1 Bft) SO 135 -1,5 C 0,1 C
06.03.2013 08:46 0,3 C 89 % 1007,7 hPa 0,0 l/m 0,0 km/h (0 Bft) O 90 -1,3 C 0,3 C
06.03.2013 08:51 0,4 C 88 % 1007,7 hPa 0,0 l/m 2,2 km/h (1 Bft) O-SO 112 -1,3 C 0,4 C
06.03.2013 08:56 0,5 C 88 % 1007,8 hPa 0,0 l/m 0,0 km/h (0 Bft) O-SO 112 -1,3 C 0,5 C
06.03.2013 09:01 0,7 C 88 % 1007,7 hPa 0,0 l/m 2,2 km/h (1 Bft) O-SO 112 -1,1 C 0,7 C
06.03.2013 09:06 0,9 C 88 % 1007,7 hPa 0,0 l/m 1,1 km/h (1 Bft) O-SO 112 -0,9 C 0,9 C
06.03.2013 09:11 1,0 C 87 % 1007,8 hPa 0,0 l/m 1,4 km/h (1 Bft) SO 135 -0,9 C 1,0 C
06.03.2013 09:16 1,1 C 87 % 1007,8 hPa 0,0 l/m 0,0 km/h (0 Bft) O-SO 112 -0,8 C 1,1 C
06.03.2013 09:21 1,3 C 87 % 1007,8 hPa 0,0 l/m 0,0 km/h (0 Bft) O-SO 112 -0,6 C 1,3 C
06.03.2013 09:26 1,3 C 87 % 1008,0 hPa 0,0 l/m 0,0 km/h (0 Bft) SO 135 -0,6 C 1,3 C
06.03.2013 09:31 1,5 C 86 % 1007,8 hPa 0,0 l/m 1,8 km/h (1 Bft) O-SO 112 -0,6 C 1,5 C
06.03.2013 09:36 1,6 C 86 % 1007,9 hPa 0,0 l/m 2,5 km/h (1 Bft) O-SO 112 -0,5 C 1,6 C
06.03.2013 09:41 1,7 C 86 % 1007,9 hPa 0,0 l/m 2,2 km/h (1 Bft) O-NO 67 -0,4 C 1,7 C
06.03.2013 09:46 1,8 C 86 % 1007,7 hPa 0,0 l/m 2,5 km/h (1 Bft) O-NO 67 -0,3 C 1,8 C
06.03.2013 09:51 1,9 C 85 % 1007,8 hPa 0,0 l/m 2,2 km/h (1 Bft) O-NO 67 -0,3 C 1,9 C
06.03.2013 09:56 2,1 C 85 % 1007,5 hPa 0,0 l/m 0,0 km/h (0 Bft) O-NO 67 -0,2 C 2,1 C
06.03.2013 10:01 2,2 C 85 % 1007,6 hPa 0,0 l/m 1,8 km/h (1 Bft) S-SO 157 -0,1 C 2,2 C
06.03.2013 10:06 2,4 C 85 % 1007,7 hPa 0,0 l/m 0,0 km/h (0 Bft) S-SO 157 0,1 C 2,4 C
06.03.2013 10:11 2,7 C 85 % 1007,6 hPa 0,0 l/m 0,0 km/h (0 Bft) SO 135 0,4 C 2,7 C
06.03.2013 10:16 2,9 C 84 % 1007,7 hPa 0,0 l/m 1,1 km/h (1 Bft) S-SO 157 0,5 C 2,9 C
06.03.2013 10:21 3,2 C 84 % 1007,6 hPa 0,0 l/m 0,0 km/h (0 Bft) S-SO 157 0,8 C 3,2 C
06.03.2013 10:26 3,3 C 83 % 1007,6 hPa 0,0 l/m 2,2 km/h (1 Bft) O 90 0,7 C 3,3 C
06.03.2013 10:31 3,4 C 82 % 1007,5 hPa 0,0 l/m 0,0 km/h (0 Bft) O 90 0,6 C 3,4 C
06.03.2013 10:36 3,6 C 82 % 1007,6 hPa 0,0 l/m 1,4 km/h (1 Bft) O-SO 112 0,8 C 3,6 C
06.03.2013 10:41 3,6 C 82 % 1007,7 hPa 0,0 l/m 3,6 km/h (1 Bft) SO 135 0,8 C 3,6 C
06.03.2013 10:46 3,8 C 81 % 1007,4 hPa 0,0 l/m 2,5 km/h (1 Bft) O-NO 67 0,8 C 3,8 C
06.03.2013 10:51 3,9 C 81 % 1007,5 hPa 0,0 l/m 4,3 km/h (1 Bft) O-SO 112 0,9 C 3,9 C
06.03.2013 10:56 3,9 C 81 % 1007,4 hPa 0,0 l/m 2,5 km/h (1 Bft) O-SO 112 0,9 C 3,9 C
06.03.2013 11:01 3,9 C 80 % 1007,4 hPa 0,0 l/m 7,9 km/h (2 Bft) O 90 0,8 C 1,9 C
06.03.2013 11:06 4,0 C 79 % 1007,3 hPa 0,0 l/m 2,2 km/h (1 Bft) SO 135 0,7 C 4,0 C
06.03.2013 11:11 4,1 C 79 % 1007,3 hPa 0,0 l/m 3,6 km/h (1 Bft) O-SO 112 0,8 C 4,1 C
06.03.2013 11:16 4,2 C 79 % 1007,2 hPa 0,0 l/m 5,0 km/h (1 Bft) O-NO 67 0,9 C 3,2 C
06.03.2013 11:21 4,4 C 79 % 1007,2 hPa 0,0 l/m 3,2 km/h (1 Bft) O-NO 67 1,1 C 4,4 C
06.03.2013 11:26 4,8 C 79 % 1007,3 hPa 0,0 l/m 4,7 km/h (1 Bft) SO 135 1,5 C 4,0 C
06.03.2013 11:31 4,9 C 78 % 1007,1 hPa 0,0 l/m 5,4 km/h (1 Bft) SO 135 1,4 C 3,8 C
06.03.2013 11:36 5,2 C 77 % 1007,0 hPa 0,0 l/m 6,8 km/h (2 Bft) NO 45 1,5 C 3,7 C
06.03.2013 11:41 5,4 C 76 % 1007,0 hPa 0,0 l/m 0,0 km/h (0 Bft) O 90 1,5 C 5,4 C
06.03.2013 11:46 5,6 C 75 % 1007,0 hPa 0,0 l/m 5,8 km/h (2 Bft) S-SO 157 1,5 C 4,5 C
06.03.2013 11:51 5,7 C 75 % 1006,9 hPa 0,0 l/m 1,1 km/h (1 Bft) O-SO 112 1,6 C 5,7 C
06.03.2013 11:56 5,9 C 75 % 1006,9 hPa 0,0 l/m 1,4 km/h (1 Bft) S-SO 157 1,8 C 5,9 C
06.03.2013 12:01 6,2 C 75 % 1006,9 hPa 0,0 l/m 0,0 km/h (0 Bft) S-SO 157 2,1 C 6,2 C
06.03.2013 12:06 6,4 C 74 % 1006,8 hPa 0,0 l/m 2,9 km/h (1 Bft) SO 135 2,1 C 6,4 C
06.03.2013 12:11 6,7 C 73 % 1006,9 hPa 0,0 l/m 6,1 km/h (2 Bft) SO 135 2,2 C 5,6 C
06.03.2013 12:16 6,8 C 72 % 1006,8 hPa 0,0 l/m 5,8 km/h (2 Bft) S-SO 157 2,1 C 5,9 C
06.03.2013 12:21 6,9 C 71 % 1006,6 hPa 0,0 l/m 4,0 km/h (1 Bft) O-SO 112 2,0 C 6,9 C
06.03.2013 12:26 7,0 C 70 % 1006,7 hPa 0,0 l/m 3,6 km/h (1 Bft) O-SO 112 1,9 C 7,0 C
06.03.2013 12:31 7,1 C 70 % 1006,5 hPa 0,0 l/m 3,6 km/h (1 Bft) O-SO 112 2,0 C 7,1 C
06.03.2013 12:36 7,2 C 70 % 1006,5 hPa 0,0 l/m 2,9 km/h (1 Bft) O-NO 67 2,1 C 7,2 C
06.03.2013 12:41 7,2 C 69 % 1006,5 hPa 0,0 l/m 7,6 km/h (2 Bft) O 90 1,9 C 5,8 C
06.03.2013 12:46 7,3 C 69 % 1006,5 hPa 0,0 l/m 0,0 km/h (0 Bft) O-NO 67 2,0 C 7,3 C
06.03.2013 12:51 7,5 C 68 % 1006,4 hPa 0,0 l/m 2,2 km/h (1 Bft) O-NO 67 2,0 C 7,5 C
06.03.2013 12:56 7,8 C 69 % 1006,3 hPa 0,0 l/m 1,8 km/h (1 Bft) S 180 2,5 C 7,8 C
06.03.2013 13:01 8,1 C 68 % 1006,3 hPa 0,0 l/m 3,6 km/h (1 Bft) NO 45 2,6 C 8,1 C
06.03.2013 13:06 8,3 C 67 % 1006,4 hPa 0,0 l/m 0,0 km/h (0 Bft) SO 135 2,5 C 8,3 C
06.03.2013 13:11 8,5 C 67 % 1006,5 hPa 0,0 l/m 2,5 km/h (1 Bft) O-SO 112 2,7 C 8,5 C
06.03.2013 13:16 8,8 C 67 % 1006,5 hPa 0,0 l/m 0,0 km/h (0 Bft) S-SO 157 3,0 C 8,8 C
06.03.2013 13:21 8,9 C 65 % 1006,3 hPa 0,0 l/m 3,6 km/h (1 Bft) O-SO 112 2,7 C 8,9 C
06.03.2013 13:26 9,1 C 66 % 1006,3 hPa 0,0 l/m 2,9 km/h (1 Bft) S-SO 157 3,1 C 9,1 C
06.03.2013 13:31 9,5 C 65 % 1006,3 hPa 0,0 l/m 1,4 km/h (1 Bft) O-SO 112 3,3 C 9,5 C
06.03.2013 13:36 9,5 C 64 % 1006,3 hPa 0,0 l/m 0,0 km/h (0 Bft) O-NO 67 3,0 C 9,5 C
06.03.2013 13:41 9,5 C 63 % 1006,3 hPa 0,0 l/m 0,0 km/h (0 Bft) O-SO 112 2,8 C 9,5 C
06.03.2013 13:46 9,5 C 63 % 1006,4 hPa 0,0 l/m 0,0 km/h (0 Bft) O 90 2,8 C 9,5 C
06.03.2013 13:51 9,6 C 64 % 1006,3 hPa 0,0 l/m 5,0 km/h (1 Bft) SO 135 3,1 C 9,3 C
06.03.2013 13:56 9,6 C 63 % 1006,1 hPa 0,0 l/m 0,0 km/h (0 Bft) SO 135 2,9 C 9,6 C
06.03.2013 14:01 9,8 C 63 % 1006,2 hPa 0,0 l/m 2,2 km/h (1 Bft) SW 225 3,1 C 9,8 C
06.03.2013 14:06 10,1 C 62 % 1006,1 hPa 0,0 l/m 3,6 km/h (1 Bft) SO 135 3,2 C 10,1 C
06.03.2013 14:11 10,1 C 62 % 1006,2 hPa 0,0 l/m 2,2 km/h (1 Bft) O-SO 112 3,2 C 10,1 C
06.03.2013 14:16 10,1 C 60 % 1006,1 hPa 0,0 l/m 5,8 km/h (2 Bft) NO 45 2,7 C 10,1 C
06.03.2013 14:21 10,0 C 59 % 1005,8 hPa 0,0 l/m 4,0 km/h (1 Bft) O-NO 67 2,4 C 10,0 C
06.03.2013 14:26 10,1 C 60 % 1005,9 hPa 0,0 l/m 0,0 km/h (0 Bft) O-SO 112 2,7 C 10,1 C
06.03.2013 14:31 10,4 C 59 % 1006,1 hPa 0,0 l/m 2,2 km/h (1 Bft) O 90 2,7 C 10,4 C
06.03.2013 14:36 10,6 C 59 % 1006,0 hPa 0,0 l/m 4,0 km/h (1 Bft) S-SO 157 2,9 C 10,6 C
06.03.2013 14:41 10,8 C 57 % 1006,0 hPa 0,0 l/m 2,2 km/h (1 Bft) O-NO 67 2,6 C 10,8 C
06.03.2013 14:46 10,6 C 57 % 1006,0 hPa 0,0 l/m 2,9 km/h (1 Bft) NO 45 2,4 C 10,6 C
06.03.2013 14:51 10,6 C 57 % 1005,9 hPa 0,0 l/m 7,6 km/h (2 Bft) O-NO 67 2,4 C 10,6 C
06.03.2013 14:56 10,6 C 57 % 1005,9 hPa 0,0 l/m 4,0 km/h (1 Bft) O 90 2,4 C 10,6 C
06.03.2013 15:01 10,8 C 56 % 1006,0 hPa 0,0 l/m 5,0 km/h (1 Bft) O-SO 112 2,4 C 10,8 C
06.03.2013 15:06 10,8 C 56 % 1005,8 hPa 0,0 l/m 5,4 km/h (1 Bft) S 180 2,4 C 10,8 C
06.03.2013 15:11 10,9 C 56 % 1005,9 hPa 0,0 l/m 7,2 km/h (2 Bft) NO 45 2,5 C 10,9 C
06.03.2013 15:16 10,9 C 56 % 1005,8 hPa 0,0 l/m 3,2 km/h (1 Bft) O-NO 67 2,5 C 10,9 C
06.03.2013 15:21 11,0 C 56 % 1005,8 hPa 0,0 l/m 0,0 km/h (0 Bft) O-SO 112 2,6 C 11,0 C
06.03.2013 15:26 11,2 C 56 % 1005,9 hPa 0,0 l/m 5,8 km/h (2 Bft) O 90 2,8 C 11,2 C
06.03.2013 15:31 11,1 C 56 % 1005,8 hPa 0,0 l/m 4,0 km/h (1 Bft) O-SO 112 2,7 C 11,1 C
06.03.2013 15:36 11,1 C 56 % 1005,7 hPa 0,0 l/m 0,0 km/h (0 Bft) S-SO 157 2,7 C 11,1 C
06.03.2013 15:41 11,1 C 56 % 1005,8 hPa 0,0 l/m 2,9 km/h (1 Bft) O-SO 112 2,7 C 11,1 C
06.03.2013 15:46 11,0 C 56 % 1005,9 hPa 0,0 l/m 4,0 km/h (1 Bft) O-NO 67 2,6 C 11,0 C
06.03.2013 15:51 10,9 C 57 % 1005,9 hPa 0,0 l/m 0,0 km/h (0 Bft) SO 135 2,7 C 10,9 C
06.03.2013 15:56 10,7 C 57 % 1005,9 hPa 0,0 l/m 2,9 km/h (1 Bft) S-SO 157 2,5 C 10,7 C
06.03.2013 16:01 10,7 C 57 % 1005,9 hPa 0,0 l/m 0,0 km/h (0 Bft) O 90 2,5 C 10,7 C
06.03.2013 16:06 10,7 C 56 % 1005,8 hPa 0,0 l/m 5,4 km/h (1 Bft) S-SO 157 2,3 C 10,7 C
06.03.2013 16:11 10,7 C 57 % 1005,8 hPa 0,0 l/m 5,4 km/h (1 Bft) O-SO 112 2,5 C 10,7 C
06.03.2013 16:16 10,5 C 58 % 1005,8 hPa 0,0 l/m 0,0 km/h (0 Bft) S-SO 157 2,6 C 10,5 C
06.03.2013 16:21 10,4 C 58 % 1005,8 hPa 0,0 l/m 2,9 km/h (1 Bft) O-SO 112 2,5 C 10,4 C
06.03.2013 16:26 10,3 C 58 % 1005,6 hPa 0,0 l/m 0,0 km/h (0 Bft) O-NO 67 2,4 C 10,3 C
06.03.2013 16:31 10,1 C 59 % 1005,7 hPa 0,0 l/m 2,5 km/h (1 Bft) O-NO 67 2,5 C 10,1 C
06.03.2013 16:36 9,9 C 60 % 1005,6 hPa 0,0 l/m 3,2 km/h (1 Bft) NO 45 2,5 C 9,9 C
06.03.2013 16:41 9,8 C 60 % 1005,7 hPa 0,0 l/m 5,8 km/h (2 Bft) NO 45 2,4 C 9,3 C
06.03.2013 16:46 9,6 C 60 % 1005,4 hPa 0,0 l/m 0,0 km/h (0 Bft) O-NO 67 2,2 C 9,6 C
06.03.2013 16:51 9,5 C 61 % 1005,5 hPa 0,0 l/m 1,8 km/h (1 Bft) O 90 2,4 C 9,5 C
06.03.2013 16:56 9,4 C 62 % 1005,5 hPa 0,0 l/m 4,0 km/h (1 Bft) O-NO 67 2,5 C 9,4 C
06.03.2013 17:01 9,3 C 63 % 1005,5 hPa 0,0 l/m 2,2 km/h (1 Bft) O-NO 67 2,6 C 9,3 C
06.03.2013 17:06 9,1 C 63 % 1005,6 hPa 0,0 l/m 2,5 km/h (1 Bft) O-NO 67 2,4 C 9,1 C
06.03.2013 17:11 8,9 C 64 % 1005,5 hPa 0,0 l/m 3,6 km/h (1 Bft) O-SO 112 2,5 C 8,9 C
06.03.2013 17:16 8,8 C 64 % 1005,5 hPa 0,0 l/m 1,8 km/h (1 Bft) O-NO 67 2,4 C 8,8 C
06.03.2013 17:21 8,7 C 65 % 1005,5 hPa 0,0 l/m 0,0 km/h (0 Bft) O-NO 67 2,5 C 8,7 C
06.03.2013 17:26 8,5 C 65 % 1005,6 hPa 0,0 l/m 2,2 km/h (1 Bft) NO 45 2,3 C 8,5 C
06.03.2013 17:31 8,4 C 66 % 1005,4 hPa 0,0 l/m 3,2 km/h (1 Bft) NO 45 2,4 C 8,4 C
06.03.2013 17:36 8,3 C 66 % 1005,5 hPa 0,0 l/m 6,1 km/h (2 Bft) NO 45 2,3 C 7,5 C
06.03.2013 17:41 8,2 C 66 % 1005,4 hPa 0,0 l/m 3,2 km/h (1 Bft) NO 45 2,2 C 8,2 C
06.03.2013 17:46 8,1 C 66 % 1005,4 hPa 0,0 l/m 2,2 km/h (1 Bft) NO 45 2,1 C 8,1 C
06.03.2013 17:51 7,9 C 67 % 1005,2 hPa 0,0 l/m 2,2 km/h (1 Bft) NO 45 2,2 C 7,9 C
06.03.2013 17:56 7,8 C 67 % 1005,3 hPa 0,0 l/m 2,9 km/h (1 Bft) O-NO 67 2,1 C 7,8 C
06.03.2013 18:01 7,8 C 67 % 1005,4 hPa 0,0 l/m 1,8 km/h (1 Bft) O-NO 67 2,1 C 7,8 C
06.03.2013 18:06 7,6 C 68 % 1005,2 hPa 0,0 l/m 2,2 km/h (1 Bft) O-NO 67 2,1 C 7,6 C
06.03.2013 18:11 7,5 C 68 % 1005,6 hPa 0,0 l/m 3,2 km/h (1 Bft) O-NO 67 2,0 C 7,5 C
06.03.2013 18:16 7,3 C 68 % 1005,6 hPa 0,0 l/m 0,0 km/h (0 Bft) O-NO 67 1,8 C 7,3 C
06.03.2013 18:21 7,2 C 68 % 1005,8 hPa 0,0 l/m 0,0 km/h (0 Bft) O-NO 67 1,7 C 7,2 C
06.03.2013 18:26 6,9 C 68 % 1005,7 hPa 0,0 l/m 0,0 km/h (0 Bft) O-NO 67 1,4 C 6,9 C
06.03.2013 18:31 6,6 C 69 % 1005,8 hPa 0,0 l/m 0,0 km/h (0 Bft) O-NO 67 1,3 C 6,6 C
06.03.2013 18:36 6,2 C 69 % 1005,8 hPa 0,0 l/m 0,0 km/h (0 Bft) O-NO 67 0,9 C 6,2 C
06.03.2013 18:41 5,9 C 71 % 1005,9 hPa 0,0 l/m 0,0 km/h (0 Bft) O-NO 67 1,1 C 5,9 C
06.03.2013 18:46 5,6 C 71 % 1005,9 hPa 0,0 l/m 0,0 km/h (0 Bft) O-NO 67 0,8 C 5,6 C
06.03.2013 18:51 5,4 C 72 % 1006,1 hPa 0,0 l/m 0,0 km/h (0 Bft) O-NO 67 0,8 C 5,4 C
06.03.2013 18:56 5,1 C 72 % 1006,2 hPa 0,0 l/m 0,0 km/h (0 Bft) O-NO 67 0,5 C 5,1 C
06.03.2013 19:01 4,9 C 73 % 1006,1 hPa 0,0 l/m 1,1 km/h (1 Bft) O-NO 67 0,5 C 4,9 C
06.03.2013 19:06 4,7 C 74 % 1006,1 hPa 0,0 l/m 0,0 km/h (0 Bft) O-NO 67 0,5 C 4,7 C
06.03.2013 19:11 4,5 C 75 % 1006,2 hPa 0,0 l/m 0,0 km/h (0 Bft) O-NO 67 0,5 C 4,5 C
06.03.2013 19:16 4,4 C 76 % 1006,2 hPa 0,0 l/m 0,0 km/h (0 Bft) O-NO 67 0,5 C 4,4 C
06.03.2013 19:21 4,2 C 76 % 1006,2 hPa 0,0 l/m 0,0 km/h (0 Bft) O-NO 67 0,4 C 4,2 C
06.03.2013 19:26 4,1 C 77 % 1006,2 hPa 0,0 l/m 1,4 km/h (1 Bft) O-NO 67 0,4 C 4,1 C
06.03.2013 19:31 4,1 C 78 % 1006,2 hPa 0,0 l/m 1,4 km/h (1 Bft) O-NO 67 0,6 C 4,1 C
06.03.2013 19:36 4,1 C 78 % 1006,3 hPa 0,0 l/m 1,4 km/h (1 Bft) O-NO 67 0,6 C 4,1 C
06.03.2013 19:41 4,3 C 79 % 1006,1 hPa 0,0 l/m 4,3 km/h (1 Bft) O-NO 67 1,0 C 4,3 C
06.03.2013 19:46 4,6 C 79 % 1006,2 hPa 0,0 l/m 2,5 km/h (1 Bft) O-NO 67 1,3 C 4,6 C
06.03.2013 19:51 4,6 C 78 % 1006,0 hPa 0,0 l/m 0,0 km/h (0 Bft) O-NO 67 1,1 C 4,6 C
06.03.2013 19:56 4,7 C 78 % 1006,1 hPa 0,0 l/m 3,2 km/h (1 Bft) NO 45 1,2 C 4,7 C
06.03.2013 20:01 4,9 C 78 % 1006,0 hPa 0,0 l/m 3,6 km/h (1 Bft) NO 45 1,4 C 4,9 C
06.03.2013 20:06 4,9 C 78 % 1006,1 hPa 0,0 l/m 3,6 km/h (1 Bft) O-NO 67 1,4 C 4,9 C
06.03.2013 20:11 5,0 C 77 % 1006,3 hPa 0,0 l/m 0,0 km/h (0 Bft) NO 45 1,3 C 5,0 C
06.03.2013 20:16 5,0 C 77 % 1006,2 hPa 0,0 l/m 0,0 km/h (0 Bft) NO 45 1,3 C 5,0 C
06.03.2013 20:21 4,9 C 77 % 1006,2 hPa 0,0 l/m 4,0 km/h (1 Bft) O-NO 67 1,2 C 4,9 C
06.03.2013 20:26 4,9 C 77 % 1006,3 hPa 0,0 l/m 2,9 km/h (1 Bft) NO 45 1,2 C 4,9 C
06.03.2013 20:31 4,8 C 77 % 1006,4 hPa 0,0 l/m 2,2 km/h (1 Bft) NO 45 1,1 C 4,8 C
06.03.2013 20:36 4,8 C 77 % 1006,4 hPa 0,0 l/m 3,6 km/h (1 Bft) NO 45 1,1 C 4,8 C
06.03.2013 20:41 4,9 C 77 % 1006,3 hPa 0,0 l/m 2,5 km/h (1 Bft) NO 45 1,2 C 4,9 C
06.03.2013 20:46 5,0 C 76 % 1006,4 hPa 0,0 l/m 1,8 km/h (1 Bft) O-NO 67 1,1 C 5,0 C
06.03.2013 20:51 5,0 C 76 % 1006,5 hPa 0,0 l/m 4,7 km/h (1 Bft) NO 45 1,1 C 4,2 C
06.03.2013 20:56 5,0 C 76 % 1006,4 hPa 0,0 l/m 5,4 km/h (1 Bft) O-NO 67 1,1 C 3,9 C
06.03.2013 21:01 4,9 C 76 % 1006,3 hPa 0,0 l/m 5,0 km/h (1 Bft) O-NO 67 1,0 C 4,0 C
06.03.2013 21:06 4,9 C 75 % 1006,4 hPa 0,0 l/m 6,8 km/h (2 Bft) O-NO 67 0,8 C 3,4 C
06.03.2013 21:11 4,9 C 75 % 1006,4 hPa 0,0 l/m 4,3 km/h (1 Bft) NO 45 0,8 C 4,9 C
06.03.2013 21:16 4,9 C 75 % 1006,4 hPa 0,0 l/m 3,6 km/h (1 Bft) O-NO 67 0,8 C 4,9 C
06.03.2013 21:21 4,8 C 75 % 1006,5 hPa 0,0 l/m 3,2 km/h (1 Bft) SO 135 0,8 C 4,8 C
06.03.2013 21:26 4,6 C 76 % 1006,4 hPa 0,0 l/m 5,0 km/h (1 Bft) NO 45 0,7 C 3,6 C
06.03.2013 21:31 4,5 C 76 % 1006,5 hPa 0,0 l/m 2,5 km/h (1 Bft) O 90 0,6 C 4,5 C
06.03.2013 21:36 4,4 C 76 % 1006,5 hPa 0,0 l/m 4,0 km/h (1 Bft) NO 45 0,5 C 4,4 C
06.03.2013 21:41 4,3 C 76 % 1006,5 hPa 0,0 l/m 4,0 km/h (1 Bft) NO 45 0,5 C 4,3 C
06.03.2013 21:46 4,2 C 76 % 1006,4 hPa 0,0 l/m 4,3 km/h (1 Bft) O-NO 67 0,4 C 4,2 C
06.03.2013 21:51 4,2 C 77 % 1006,5 hPa 0,0 l/m 3,2 km/h (1 Bft) O-SO 112 0,5 C 4,2 C
06.03.2013 21:56 4,1 C 77 % 1006,7 hPa 0,0 l/m 0,0 km/h (0 Bft) O-SO 112 0,4 C 4,1 C
06.03.2013 22:01 3,9 C 77 % 1006,6 hPa 0,0 l/m 4,0 km/h (1 Bft) O-SO 112 0,2 C 3,9 C
06.03.2013 22:06 3,8 C 77 % 1006,7 hPa 0,0 l/m 3,2 km/h (1 Bft) NO 45 0,1 C 3,8 C
06.03.2013 22:11 3,8 C 78 % 1006,7 hPa 0,0 l/m 5,8 km/h (2 Bft) O-SO 112 0,3 C 2,4 C
06.03.2013 22:16 3,8 C 78 % 1006,5 hPa 0,0 l/m 4,0 km/h (1 Bft) O-NO 67 0,3 C 3,8 C
06.03.2013 22:21 3,9 C 78 % 1006,6 hPa 0,0 l/m 0,0 km/h (0 Bft) O-NO 67 0,4 C 3,9 C
06.03.2013 22:26 3,8 C 78 % 1006,7 hPa 0,0 l/m 4,0 km/h (1 Bft) O-SO 112 0,3 C 3,8 C
06.03.2013 22:31 3,8 C 78 % 1006,6 hPa 0,0 l/m 4,0 km/h (1 Bft) O-NO 67 0,3 C 3,8 C
06.03.2013 22:36 3,8 C 78 % 1006,5 hPa 0,0 l/m 5,0 km/h (1 Bft) O-SO 112 0,3 C 2,7 C
06.03.2013 22:41 3,7 C 78 % 1006,6 hPa 0,0 l/m 4,7 km/h (1 Bft) O 90 0,2 C 2,7 C
06.03.2013 22:46 3,6 C 78 % 1006,5 hPa 0,0 l/m 4,7 km/h (1 Bft) O-SO 112 0,1 C 2,6 C
06.03.2013 22:51 3,6 C 78 % 1006,4 hPa 0,0 l/m 4,0 km/h (1 Bft) O-NO 67 0,1 C 3,6 C
06.03.2013 22:56 3,6 C 79 % 1006,5 hPa 0,0 l/m 2,9 km/h (1 Bft) NO 45 0,3 C 3,6 C
06.03.2013 23:01 3,6 C 79 % 1006,4 hPa 0,0 l/m 0,0 km/h (0 Bft) O-NO 67 0,3 C 3,6 C
06.03.2013 23:06 3,5 C 79 % 1006,4 hPa 0,0 l/m 4,7 km/h (1 Bft) O-SO 112 0,2 C 2,5 C
06.03.2013 23:11 3,5 C 79 % 1006,3 hPa 0,0 l/m 4,7 km/h (1 Bft) O-SO 112 0,2 C 2,5 C
06.03.2013 23:16 3,4 C 79 % 1006,4 hPa 0,0 l/m 3,2 km/h (1 Bft) O-SO 112 0,1 C 3,4 C
06.03.2013 23:21 3,3 C 79 % 1006,2 hPa 0,0 l/m 1,4 km/h (1 Bft) O-NO 67 0,0 C 3,3 C
06.03.2013 23:26 3,3 C 79 % 1006,1 hPa 0,0 l/m 2,5 km/h (1 Bft) O-NO 67 0,0 C 3,3 C
06.03.2013 23:31 3,2 C 80 % 1006,2 hPa 0,0 l/m 2,9 km/h (1 Bft) O-NO 67 0,1 C 3,2 C
06.03.2013 23:36 3,1 C 80 % 1006,1 hPa 0,0 l/m 3,2 km/h (1 Bft) O-NO 67 -0,0 C 3,1 C
06.03.2013 23:41 3,1 C 80 % 1005,8 hPa 0,0 l/m 2,5 km/h (1 Bft) O-NO 67 -0,0 C 3,1 C
06.03.2013 23:46 3,1 C 80 % 1005,8 hPa 0,0 l/m 4,7 km/h (1 Bft) O-NO 67 -0,0 C 2,1 C
06.03.2013 23:51 3,2 C 81 % 1005,5 hPa 0,0 l/m 7,2 km/h (2 Bft) O-NO 67 0,3 C 1,3 C
06.03.2013 23:56 3,2 C 81 % 1005,8 hPa 0,0 l/m 6,8 km/h (2 Bft) O-NO 67 0,3 C 1,4 C
_ Min-Zeit 06:36 15:01 17:51 - 00:06 - - 06:36 06:41
Minimum _ -1,6 C 56 % 1005,2 hPa - 0,0 km/h (0 Bft) - - -3,2 C -3,9 C
_ Max-Zeit 15:26 07:21 00:16 00:01 11:01 - - 13:31 15:26
Maximum _ 11,2 C 90 % 1009,3 hPa 0,0 l/m 7,9 km/h
O (2 Bft)
- - 3,3 C 11,2 C
Durchschnitt _ 3,7 C 77 % 1007,0 hPa #0,0 l/m 2,7 km/h (1 Bft) O-SO - -0,0 C 3,5 C
(c) by David Heller